createdAt,value
2023-02-11T00:01:20.808Z,19.00
2023-02-11T00:03:47.951Z,19.45
2023-02-11T00:06:15.306Z,17.63
2023-02-11T00:08:42.982Z,16.85
2023-02-11T00:11:15.150Z,15.90
2023-02-11T00:13:43.562Z,16.13
2023-02-11T00:16:15.490Z,15.18
2023-02-11T00:18:42.782Z,17.27
2023-02-11T00:21:16.294Z,15.73
2023-02-11T00:23:44.339Z,14.98
2023-02-11T00:26:16.536Z,16.50
2023-02-11T00:28:44.679Z,17.70
2023-02-11T00:31:13.388Z,16.55
2023-02-11T00:33:40.766Z,16.48
2023-02-11T00:36:16.717Z,15.93
2023-02-11T00:38:45.404Z,17.02
2023-02-11T00:41:13.713Z,16.98
2023-02-11T00:43:41.591Z,17.10
2023-02-11T00:46:09.464Z,18.63
2023-02-11T00:48:36.812Z,19.50
2023-02-11T00:51:04.548Z,19.30
2023-02-11T00:53:32.836Z,20.80
2023-02-11T00:56:01.238Z,18.35
2023-02-11T00:58:30.567Z,16.35
2023-02-11T01:00:58.195Z,15.98
2023-02-11T01:03:25.859Z,15.65
2023-02-11T01:05:53.496Z,17.73
2023-02-11T01:08:20.956Z,18.13
2023-02-11T01:11:07.648Z,18.50
2023-02-11T01:13:37.337Z,16.98
2023-02-11T01:16:07.878Z,17.80
2023-02-11T01:18:35.433Z,18.48
2023-02-11T01:21:02.516Z,18.50
2023-02-11T01:23:29.599Z,15.80
2023-02-11T01:25:57.502Z,16.13
2023-02-11T01:28:27.453Z,17.55
2023-02-11T01:30:54.791Z,18.17
2023-02-11T01:33:23.489Z,17.17
2023-02-11T01:35:51.160Z,16.65
2023-02-11T01:38:24.659Z,17.90
2023-02-11T01:40:55.807Z,17.70
2023-02-11T01:43:24.786Z,15.52
2023-02-11T01:45:59.320Z,17.42
2023-02-11T01:48:36.066Z,17.95
2023-02-11T01:51:21.967Z,15.40
2023-02-11T01:54:08.722Z,17.23
2023-02-11T01:56:59.068Z,17.05
2023-02-11T01:59:41.601Z,17.65
2023-02-11T02:02:13.731Z,16.67
2023-02-11T02:04:53.670Z,14.50
2023-02-11T02:07:35.077Z,15.20
2023-02-11T02:12:37.636Z,18.02
2023-02-11T02:15:29.458Z,15.55
2023-02-11T02:18:31.085Z,15.25
2023-02-11T02:24:10.692Z,14.70
2023-02-11T02:26:53.505Z,9.82
2023-02-11T02:30:05.179Z,14.88
2023-02-11T02:32:52.691Z,13.43
2023-02-11T02:35:40.906Z,13.85
2023-02-11T02:38:32.791Z,14.35
2023-02-11T02:41:12.317Z,13.55
2023-02-11T02:43:46.652Z,12.90
2023-02-11T02:46:26.086Z,13.75
2023-02-11T02:48:54.924Z,14.13
2023-02-11T02:51:27.653Z,14.65
2023-02-11T02:54:44.779Z,12.63
2023-02-11T02:58:00.156Z,12.30
2023-02-11T03:00:50.628Z,12.90
2023-02-11T03:03:40.833Z,13.38
2023-02-11T03:06:32.582Z,12.63
2023-02-11T03:09:55.195Z,12.85
2023-02-11T03:12:23.728Z,14.57
2023-02-11T03:14:52.813Z,13.35
2023-02-11T03:17:21.611Z,13.25
2023-02-11T03:19:51.001Z,13.90
2023-02-11T03:22:27.585Z,16.73
2023-02-11T03:24:56.768Z,14.68
2023-02-11T03:27:49.520Z,14.20
2023-02-11T03:30:24.984Z,13.77
2023-02-11T03:33:09.100Z,12.85
2023-02-11T03:35:43.165Z,12.95
2023-02-11T03:38:26.322Z,12.50
2023-02-11T03:40:55.478Z,13.27
2023-02-11T03:43:45.156Z,13.85
2023-02-11T03:46:14.124Z,15.25
2023-02-11T03:48:46.026Z,13.95
2023-02-11T03:51:14.532Z,14.15
2023-02-11T03:53:45.340Z,11.52
2023-02-11T03:56:20.670Z,15.25
2023-02-11T03:58:49.216Z,13.15
2023-02-11T04:01:16.771Z,12.13
2023-02-11T04:03:44.013Z,14.35
2023-02-11T04:06:11.261Z,16.60
2023-02-11T04:08:38.510Z,15.07
2023-02-11T04:11:05.543Z,16.05
2023-02-11T04:13:32.842Z,14.82
2023-02-11T04:15:59.925Z,16.60
2023-02-11T04:18:27.037Z,17.00
2023-02-11T04:20:54.071Z,17.85
2023-02-11T04:23:21.208Z,15.85
2023-02-11T04:25:51.467Z,16.80
2023-02-11T04:28:18.762Z,17.17
2023-02-11T04:30:45.818Z,14.68
2023-02-11T04:33:13.093Z,15.48
2023-02-11T04:35:40.304Z,15.10
2023-02-11T04:38:07.329Z,16.90
2023-02-11T04:40:34.445Z,15.43
2023-02-11T04:43:01.488Z,15.18
2023-02-11T04:45:28.665Z,14.85
2023-02-11T04:47:55.755Z,16.75
2023-02-11T04:50:22.822Z,17.25
2023-02-11T04:52:49.844Z,15.50
2023-02-11T04:55:17.118Z,18.75
2023-02-11T04:57:44.144Z,15.90
2023-02-11T05:00:12.230Z,15.85
2023-02-11T05:02:39.419Z,16.25
2023-02-11T05:05:06.668Z,16.13
2023-02-11T05:07:34.105Z,16.38
2023-02-11T05:10:01.272Z,17.60
2023-02-11T05:12:28.362Z,16.92
2023-02-11T05:14:55.392Z,17.80
2023-02-11T05:17:22.475Z,17.83
2023-02-11T05:19:51.929Z,18.70
2023-02-11T05:22:19.808Z,18.67
2023-02-11T05:24:47.063Z,17.73
2023-02-11T05:27:14.189Z,18.40
2023-02-11T05:29:41.250Z,16.70
2023-02-11T05:32:09.135Z,20.13
2023-02-11T05:34:36.854Z,15.57
2023-02-11T05:37:05.548Z,15.35
2023-02-11T05:39:32.590Z,17.90
2023-02-11T05:42:01.659Z,16.08
2023-02-11T05:44:28.800Z,15.65
2023-02-11T05:46:55.958Z,15.05
2023-02-11T05:49:23.082Z,17.08
2023-02-11T05:51:50.120Z,14.73
2023-02-11T05:54:17.466Z,15.32
2023-02-11T05:56:45.672Z,14.60
2023-02-11T05:59:15.004Z,16.60
2023-02-11T06:01:42.586Z,12.77
2023-02-11T06:04:09.796Z,16.08
2023-02-11T06:06:37.240Z,16.35
2023-02-11T06:09:04.826Z,15.57
2023-02-11T06:11:31.901Z,15.13
2023-02-11T06:13:59.017Z,15.75
2023-02-11T06:16:26.127Z,13.77
2023-02-11T06:18:53.178Z,13.43
2023-02-11T06:21:20.309Z,15.07
2023-02-11T06:23:47.550Z,13.50
2023-02-11T06:26:22.040Z,19.55
2023-02-11T06:28:49.598Z,17.55
2023-02-11T06:31:17.254Z,13.80
2023-02-11T06:33:44.644Z,13.57
2023-02-11T06:36:21.556Z,13.55
2023-02-11T06:38:49.865Z,15.07
2023-02-11T06:41:21.825Z,15.27
2023-02-11T06:43:50.279Z,15.07
2023-02-11T06:46:17.430Z,14.60
2023-02-11T06:48:45.082Z,16.38
2023-02-11T06:51:14.251Z,14.23
2023-02-11T06:53:46.880Z,14.07
2023-02-11T06:56:21.353Z,15.00
2023-02-11T06:58:53.576Z,14.77
2023-02-11T07:01:20.996Z,15.25
2023-02-11T07:03:49.565Z,14.02
2023-02-11T07:06:20.690Z,14.75
2023-02-11T07:08:48.594Z,14.63
2023-02-11T07:11:31.124Z,15.43
2023-02-11T07:14:06.114Z,15.48
2023-02-11T07:16:33.611Z,13.10
2023-02-11T07:19:00.762Z,13.85
2023-02-11T07:21:28.010Z,12.57
2023-02-11T07:23:55.233Z,13.65
2023-02-11T07:26:23.928Z,12.68
2023-02-11T07:28:51.991Z,16.48
2023-02-11T07:31:29.394Z,17.27
2023-02-11T07:34:00.336Z,19.30
2023-02-11T07:36:29.962Z,16.73
2023-02-11T07:38:56.971Z,15.73
2023-02-11T07:41:25.339Z,16.13
2023-02-11T07:43:52.617Z,14.23
2023-02-11T07:46:26.747Z,13.30
2023-02-11T07:48:55.039Z,14.27
2023-02-11T07:51:25.713Z,15.13
2023-02-11T07:53:53.530Z,12.67
2023-02-11T07:56:21.723Z,13.57
2023-02-11T07:58:49.293Z,15.60
2023-02-11T08:01:25.524Z,15.77
2023-02-11T08:03:53.133Z,14.20
2023-02-11T08:06:22.356Z,14.82
2023-02-11T08:08:50.295Z,14.43
2023-02-11T08:11:26.252Z,12.38
2023-02-11T08:13:55.918Z,13.40
2023-02-11T08:16:42.864Z,12.80
2023-02-11T08:19:16.519Z,11.05
2023-02-11T08:21:44.750Z,10.52
2023-02-11T08:24:11.994Z,11.25
2023-02-11T08:26:39.630Z,10.98
2023-02-11T08:29:13.766Z,10.48
2023-02-11T08:31:44.318Z,12.75
2023-02-11T08:34:14.345Z,12.97
2023-02-11T08:36:43.038Z,11.70
2023-02-11T08:39:20.823Z,10.88
2023-02-11T08:41:56.541Z,11.82
2023-02-11T08:44:24.337Z,11.45
2023-02-11T08:46:52.314Z,11.38
2023-02-11T08:49:20.426Z,10.63
2023-02-11T08:51:47.610Z,12.00
2023-02-11T08:54:15.501Z,10.23
2023-02-11T08:56:43.168Z,9.77
2023-02-11T08:59:15.383Z,10.35
2023-02-11T09:01:44.267Z,8.88
2023-02-11T09:04:11.510Z,9.27
2023-02-11T09:06:38.605Z,8.55
2023-02-11T09:09:05.973Z,8.50
2023-02-11T09:11:35.730Z,8.80
2023-02-11T09:14:04.591Z,8.23
2023-02-11T09:16:36.519Z,10.07
2023-02-11T09:19:05.665Z,9.30
2023-02-11T09:21:33.297Z,10.57
2023-02-11T09:24:00.389Z,10.02
2023-02-11T09:26:33.942Z,10.48
2023-02-11T09:29:01.974Z,9.85
2023-02-11T09:31:32.523Z,9.70
2023-02-11T09:34:04.484Z,9.10
2023-02-11T09:36:38.269Z,8.35
2023-02-11T09:39:11.752Z,7.13
2023-02-11T09:42:13.624Z,8.00
2023-02-11T09:44:40.810Z,7.88
2023-02-11T09:47:28.781Z,7.80
2023-02-11T09:50:12.785Z,7.63
2023-02-11T09:53:03.091Z,9.13
2023-02-11T09:55:42.839Z,7.55
2023-02-11T09:58:22.327Z,8.15
2023-02-11T10:01:29.978Z,8.57
2023-02-11T10:04:05.695Z,7.20
2023-02-11T10:06:55.902Z,7.72
2023-02-11T10:10:01.242Z,9.70
2023-02-11T10:12:55.228Z,8.30
2023-02-11T10:15:42.335Z,9.57
2023-02-11T10:18:47.127Z,7.97
2023-02-11T10:21:24.747Z,8.45
2023-02-11T10:23:57.565Z,8.60
2023-02-11T10:26:27.985Z,10.43
2023-02-11T10:28:59.853Z,9.52
2023-02-11T10:31:42.569Z,9.45
2023-02-11T10:34:14.996Z,9.40
2023-02-11T10:36:44.716Z,8.18
2023-02-11T10:39:26.075Z,9.57
2023-02-11T10:42:00.555Z,8.80
2023-02-11T10:44:35.366Z,9.32
2023-02-11T10:47:24.609Z,8.18
2023-02-11T10:49:51.839Z,9.82
2023-02-11T10:52:27.975Z,9.18
2023-02-11T10:55:25.035Z,8.82
2023-02-11T10:58:01.200Z,8.60
2023-02-11T11:00:38.050Z,8.88
2023-02-11T11:03:21.770Z,8.23
2023-02-11T11:06:03.212Z,7.85
2023-02-11T11:08:49.751Z,8.45
2023-02-11T11:11:20.854Z,8.77
2023-02-11T11:13:53.777Z,7.65
2023-02-11T11:16:28.478Z,9.73
2023-02-11T11:19:07.710Z,8.45
2023-02-11T11:21:47.026Z,7.85
2023-02-11T11:24:44.533Z,8.25
2023-02-11T11:27:22.024Z,7.97
2023-02-11T11:29:55.538Z,8.25
2023-02-11T11:32:32.919Z,8.38
2023-02-11T11:35:06.073Z,7.93
2023-02-11T11:37:36.854Z,8.35
2023-02-11T11:40:09.329Z,7.90
2023-02-11T11:42:39.178Z,7.90
2023-02-11T11:45:26.577Z,9.27
2023-02-11T11:48:00.888Z,9.25
2023-02-11T11:50:50.688Z,7.97
2023-02-11T11:53:36.600Z,8.05
2023-02-11T11:56:14.826Z,8.25
2023-02-11T11:58:41.930Z,9.20
2023-02-11T12:01:43.799Z,10.02
2023-02-11T12:04:59.653Z,9.40
2023-02-11T12:07:54.384Z,8.48
2023-02-11T12:10:53.577Z,7.63
2023-02-11T12:13:38.748Z,8.60
2023-02-11T12:16:23.674Z,8.95
2023-02-11T12:19:26.980Z,7.43
2023-02-11T12:22:26.817Z,9.32
2023-02-11T12:25:01.143Z,8.25
2023-02-11T12:27:48.437Z,7.75
2023-02-11T12:30:46.506Z,8.18
2023-02-11T12:33:59.865Z,7.78
2023-02-11T12:37:17.164Z,7.90
2023-02-11T12:40:14.557Z,7.88
2023-02-11T12:43:15.169Z,8.52
2023-02-11T12:46:14.279Z,8.27
2023-02-11T12:49:01.385Z,7.40
2023-02-11T12:52:05.721Z,8.02
2023-02-11T12:54:41.744Z,6.85
2023-02-11T12:57:23.555Z,8.23
2023-02-11T13:00:13.670Z,7.65
2023-02-11T13:02:54.448Z,10.63
2023-02-11T13:05:33.354Z,10.45
2023-02-11T13:08:31.501Z,11.20
2023-02-11T13:11:14.377Z,9.45
2023-02-11T13:14:04.341Z,9.27
2023-02-11T13:16:40.125Z,10.15
2023-02-11T13:19:27.498Z,10.48
2023-02-11T13:22:00.271Z,10.90
2023-02-11T13:25:02.890Z,11.13
2023-02-11T13:27:58.822Z,11.23
2023-02-11T13:30:39.647Z,11.48
2023-02-11T13:33:16.870Z,11.43
2023-02-11T13:36:09.834Z,11.18
2023-02-11T13:38:37.815Z,9.93
2023-02-11T13:41:27.630Z,11.50
2023-02-11T13:44:10.469Z,11.25
2023-02-11T13:46:58.289Z,11.35
2023-02-11T13:49:35.681Z,10.55
2023-02-11T13:52:12.400Z,9.73
2023-02-11T13:54:40.491Z,12.45
2023-02-11T13:57:19.577Z,10.50
2023-02-11T13:59:48.235Z,10.40
2023-02-11T14:02:44.823Z,12.18
2023-02-11T14:05:43.642Z,12.18
2023-02-11T14:08:28.902Z,12.55
2023-02-11T14:11:00.746Z,12.00
2023-02-11T14:16:31.607Z,12.13
2023-02-11T14:19:03.304Z,20.42
2023-02-11T14:21:39.489Z,17.52
2023-02-11T14:24:07.223Z,14.15
2023-02-11T14:26:50.740Z,13.90
2023-02-11T14:29:51.855Z,13.25
2023-02-11T14:32:43.535Z,12.60
2023-02-11T14:35:52.149Z,11.68
2023-02-11T14:38:45.644Z,11.80
2023-02-11T14:41:23.624Z,12.15
2023-02-11T14:43:59.824Z,13.82
2023-02-11T14:46:32.991Z,12.43
2023-02-11T14:49:05.487Z,13.45
2023-02-11T14:51:36.821Z,12.40
2023-02-11T14:54:25.352Z,11.30
2023-02-11T14:57:21.794Z,10.20
2023-02-11T15:00:14.266Z,10.95
2023-02-11T15:02:44.629Z,11.25
2023-02-11T15:05:22.518Z,11.38
2023-02-11T15:07:56.608Z,10.93
2023-02-11T15:10:43.886Z,11.77
2023-02-11T15:13:19.538Z,11.10
2023-02-11T15:15:48.559Z,11.27
2023-02-11T15:18:25.485Z,10.65
2023-02-11T15:20:53.344Z,12.55
2023-02-11T15:23:27.657Z,12.90
2023-02-11T15:25:57.928Z,16.45
2023-02-11T15:28:32.074Z,19.52
2023-02-11T15:31:17.021Z,16.80
2023-02-11T15:33:44.141Z,14.05
2023-02-11T15:36:13.772Z,14.45
2023-02-11T15:38:41.132Z,11.70
2023-02-11T15:41:35.808Z,12.95
2023-02-11T15:44:02.938Z,10.93
2023-02-11T15:46:39.003Z,10.60
2023-02-11T15:49:08.621Z,11.65
2023-02-11T15:51:38.033Z,11.45
2023-02-11T15:54:29.477Z,13.13
2023-02-11T15:57:05.597Z,13.95
2023-02-11T15:59:39.154Z,15.70
2023-02-11T16:02:30.511Z,17.50
2023-02-11T16:05:05.011Z,19.48
2023-02-11T16:08:22.708Z,18.30
2023-02-11T16:11:09.013Z,18.30
2023-02-11T16:13:47.418Z,15.45
2023-02-11T16:16:24.146Z,15.98
2023-02-11T16:19:04.589Z,13.13
2023-02-11T16:21:40.084Z,14.55
2023-02-11T16:24:28.301Z,13.23
2023-02-11T16:27:18.439Z,14.70
2023-02-11T16:29:48.528Z,12.20
2023-02-11T16:32:25.346Z,10.77
2023-02-11T16:34:55.277Z,13.05
2023-02-11T16:37:22.256Z,12.82
2023-02-11T16:39:49.290Z,12.60
2023-02-11T16:42:16.334Z,12.73
2023-02-11T16:44:43.301Z,12.15
2023-02-11T16:47:22.996Z,13.88
2023-02-11T16:49:50.440Z,13.40
2023-02-11T16:52:19.485Z,12.80
2023-02-11T16:54:46.606Z,11.25
2023-02-11T16:57:23.607Z,11.40
2023-02-11T16:59:51.163Z,12.02
2023-02-11T17:02:31.765Z,11.98
2023-02-11T17:05:02.242Z,11.23
2023-02-11T17:07:29.968Z,11.45
2023-02-11T17:09:57.560Z,12.05
2023-02-11T17:12:27.692Z,11.02
2023-02-11T17:14:54.926Z,11.48
2023-02-11T17:17:25.035Z,11.70
2023-02-11T17:19:52.079Z,13.30
2023-02-11T17:22:19.353Z,12.02
2023-02-11T17:24:46.399Z,12.15
2023-02-11T17:27:13.792Z,12.35
2023-02-11T17:29:41.145Z,13.32
2023-02-11T17:32:08.265Z,13.18
2023-02-11T17:34:35.362Z,14.43
2023-02-11T17:37:08.950Z,14.30
2023-02-11T17:39:37.943Z,15.18
2023-02-11T17:42:06.232Z,15.98
2023-02-11T17:44:34.246Z,13.32
2023-02-11T17:47:01.321Z,13.25
2023-02-11T17:49:28.517Z,12.88
2023-02-11T17:51:55.600Z,11.82
2023-02-11T17:54:22.794Z,12.77
2023-02-11T17:56:50.876Z,10.93
2023-02-11T17:59:18.079Z,13.75
2023-02-11T18:01:45.220Z,12.00
2023-02-11T18:04:18.875Z,14.75
2023-02-11T18:06:46.993Z,11.90
2023-02-11T18:09:14.275Z,12.05
2023-02-11T18:11:42.298Z,13.23
2023-02-11T18:14:10.675Z,16.38
2023-02-11T18:16:39.836Z,14.02
2023-02-11T18:19:07.762Z,13.32
2023-02-11T18:21:35.427Z,14.95
2023-02-11T18:24:06.552Z,14.23
2023-02-11T18:26:34.753Z,14.38
2023-02-11T18:29:03.882Z,12.90
2023-02-11T18:31:31.562Z,14.10
2023-02-11T18:33:58.630Z,14.93
2023-02-11T18:36:25.775Z,15.50
2023-02-11T18:38:54.343Z,11.95
2023-02-11T18:41:21.801Z,14.18
2023-02-11T18:43:48.993Z,14.93
2023-02-11T18:46:16.705Z,14.70
2023-02-11T18:48:45.073Z,11.63
2023-02-11T18:51:20.677Z,14.93
2023-02-11T18:53:47.765Z,15.23
2023-02-11T18:56:19.027Z,15.23
2023-02-11T18:58:48.198Z,14.88
2023-02-11T19:01:26.774Z,14.40
2023-02-11T19:03:56.437Z,13.40
2023-02-11T19:06:27.533Z,13.60
2023-02-11T19:08:59.566Z,13.88
2023-02-11T19:11:47.005Z,13.35
2023-02-11T19:14:36.292Z,13.02
2023-02-11T19:17:08.423Z,11.43
2023-02-11T19:19:36.738Z,12.38
2023-02-11T19:22:08.499Z,11.73
2023-02-11T19:24:37.656Z,12.68
2023-02-11T19:27:05.863Z,12.50
2023-02-11T19:29:35.367Z,13.00
2023-02-11T19:32:05.930Z,11.55
2023-02-11T19:34:33.500Z,12.15
2023-02-11T19:37:01.741Z,12.93
2023-02-11T19:39:28.848Z,13.25
2023-02-11T19:41:55.915Z,11.45
2023-02-11T19:44:23.015Z,12.18
2023-02-11T19:46:52.887Z,12.68
2023-02-11T19:49:23.378Z,13.63
2023-02-11T19:51:51.890Z,13.00
2023-02-11T19:54:20.349Z,13.20
2023-02-11T19:56:48.773Z,12.07
2023-02-11T19:59:16.341Z,13.20
2023-02-11T20:01:44.514Z,12.88
2023-02-11T20:04:13.261Z,14.35
2023-02-11T20:06:43.826Z,14.25
2023-02-11T20:09:14.703Z,15.93
2023-02-11T20:11:42.141Z,15.67
2023-02-11T20:14:11.535Z,16.23
2023-02-11T20:16:47.986Z,16.50
2023-02-11T20:19:22.099Z,14.82
2023-02-11T20:21:53.129Z,15.73
2023-02-11T20:24:20.883Z,15.15
2023-02-11T20:26:48.914Z,13.07
2023-02-11T20:29:19.156Z,14.57
2023-02-11T20:31:46.632Z,15.93
2023-02-11T20:34:13.831Z,16.55
2023-02-11T20:36:41.190Z,15.27
2023-02-11T20:39:08.899Z,13.95
2023-02-11T20:41:39.924Z,12.93
2023-02-11T20:44:08.769Z,15.68
2023-02-11T20:46:40.361Z,12.90
2023-02-11T20:51:36.962Z,14.48
2023-02-11T20:54:06.145Z,12.95
2023-02-11T20:56:36.783Z,19.60
2023-02-11T20:59:05.131Z,20.38
2023-02-11T21:01:42.501Z,19.42
2023-02-11T21:04:30.574Z,32.63
2023-02-11T21:07:01.272Z,30.08
2023-02-11T21:09:32.212Z,26.17
2023-02-11T21:12:00.490Z,23.15
2023-02-11T21:14:29.075Z,20.75
2023-02-11T21:16:56.418Z,22.38
2023-02-11T21:19:23.815Z,19.10
2023-02-11T21:21:51.247Z,19.10
2023-02-11T21:24:18.324Z,18.85
2023-02-11T21:26:45.616Z,18.35
2023-02-11T21:29:12.819Z,15.50
2023-02-11T21:31:40.396Z,12.88
2023-02-11T21:34:08.296Z,14.20
2023-02-11T21:36:35.574Z,13.38
2023-02-11T21:39:04.005Z,14.52
2023-02-11T21:41:31.339Z,14.00
2023-02-11T21:43:58.574Z,14.55
2023-02-11T21:46:26.372Z,15.57
2023-02-11T21:48:53.612Z,16.13
2023-02-11T21:51:26.146Z,14.80
2023-02-11T21:53:59.628Z,16.00
2023-02-11T21:56:28.262Z,16.98
2023-02-11T21:58:57.712Z,19.05
2023-02-11T22:01:28.920Z,19.27
2023-02-11T22:03:56.237Z,17.20
2023-02-11T22:06:27.111Z,17.52
2023-02-11T22:08:55.248Z,18.47
2023-02-11T22:11:23.484Z,16.33
2023-02-11T22:13:55.229Z,15.35
2023-02-11T22:18:50.342Z,11.85
2023-02-11T22:21:21.171Z,12.82
2023-02-11T22:23:49.310Z,14.57
2023-02-11T22:26:21.028Z,14.43
2023-02-11T22:31:24.243Z,11.25
2023-02-11T22:33:51.907Z,12.85
2023-02-11T22:36:28.523Z,12.25
2023-02-11T22:38:56.492Z,12.30
2023-02-11T22:41:23.824Z,13.23
2023-02-11T22:43:50.951Z,13.27
2023-02-11T22:46:20.111Z,14.30
2023-02-11T22:48:48.019Z,14.00
2023-02-11T22:51:22.327Z,13.73
2023-02-11T22:53:56.520Z,14.27
2023-02-11T22:56:25.015Z,13.13
2023-02-11T22:58:53.741Z,13.15
2023-02-11T23:01:20.934Z,13.95
2023-02-11T23:03:48.301Z,15.68
2023-02-11T23:06:15.806Z,14.25
2023-02-11T23:08:43.441Z,13.75
2023-02-11T23:11:18.089Z,12.60
2023-02-11T23:13:46.862Z,12.90
2023-02-11T23:16:21.320Z,10.90
2023-02-11T23:18:49.684Z,12.30
2023-02-11T23:21:24.964Z,11.75
2023-02-11T23:24:02.148Z,14.38
2023-02-11T23:26:30.336Z,12.93
2023-02-11T23:28:59.481Z,12.20
2023-02-11T23:31:38.041Z,13.07
2023-02-11T23:34:06.895Z,13.07
2023-02-11T23:36:34.742Z,13.35
2023-02-11T23:39:02.695Z,12.13
2023-02-11T23:41:29.852Z,11.05
2023-02-11T23:43:58.133Z,13.63
2023-02-11T23:46:27.144Z,11.98
2023-02-11T23:48:54.483Z,13.38
2023-02-11T23:51:22.274Z,14.70
2023-02-11T23:53:50.433Z,12.38
2023-02-11T23:56:21.181Z,11.15
2023-02-11T23:58:50.252Z,13.02
